sensor_id;sensor_type;location;lat;lon;timestamp;P1;durP1;ratioP1;P2;durP2;ratioP2
71771;SDS011;59606;52.138;5.424;2023-03-31T00:02:02;11.10;;;2.05;;
71771;SDS011;59606;52.138;5.424;2023-03-31T00:04:41;12.57;;;2.15;;
71771;SDS011;59606;52.138;5.424;2023-03-31T00:07:18;12.00;;;1.60;;
71771;SDS011;59606;52.138;5.424;2023-03-31T00:09:47;13.27;;;2.58;;
71771;SDS011;59606;52.138;5.424;2023-03-31T00:12:14;10.38;;;2.05;;
71771;SDS011;59606;52.138;5.424;2023-03-31T00:14:42;10.60;;;1.80;;
71771;SDS011;59606;52.138;5.424;2023-03-31T00:17:09;10.98;;;2.22;;
71771;SDS011;59606;52.138;5.424;2023-03-31T00:19:37;15.80;;;2.30;;
71771;SDS011;59606;52.138;5.424;2023-03-31T00:22:05;9.70;;;1.65;;
71771;SDS011;59606;52.138;5.424;2023-03-31T00:24:32;9.07;;;1.98;;
71771;SDS011;59606;52.138;5.424;2023-03-31T00:27:00;6.28;;;2.03;;
71771;SDS011;59606;52.138;5.424;2023-03-31T00:29:28;12.90;;;1.80;;
71771;SDS011;59606;52.138;5.424;2023-03-31T00:31:56;8.77;;;1.70;;
71771;SDS011;59606;52.138;5.424;2023-03-31T00:34:25;6.60;;;1.73;;
71771;SDS011;59606;52.138;5.424;2023-03-31T00:36:52;9.38;;;2.40;;
71771;SDS011;59606;52.138;5.424;2023-03-31T00:39:22;8.63;;;1.85;;
71771;SDS011;59606;52.138;5.424;2023-03-31T00:41:53;13.80;;;2.22;;
71771;SDS011;59606;52.138;5.424;2023-03-31T00:44:22;7.53;;;1.33;;
71771;SDS011;59606;52.138;5.424;2023-03-31T00:47:04;10.18;;;2.17;;
71771;SDS011;59606;52.138;5.424;2023-03-31T00:49:36;7.70;;;1.58;;
71771;SDS011;59606;52.138;5.424;2023-03-31T00:52:06;10.68;;;1.65;;
71771;SDS011;59606;52.138;5.424;2023-03-31T00:54:40;10.25;;;1.80;;
71771;SDS011;59606;52.138;5.424;2023-03-31T00:57:10;6.53;;;1.87;;
71771;SDS011;59606;52.138;5.424;2023-03-31T00:59:39;21.50;;;2.20;;
71771;SDS011;59606;52.138;5.424;2023-03-31T01:02:08;10.98;;;2.20;;
71771;SDS011;59606;52.138;5.424;2023-03-31T01:04:38;9.45;;;1.60;;
71771;SDS011;59606;52.138;5.424;2023-03-31T01:09:44;9.93;;;1.50;;
71771;SDS011;59606;52.138;5.424;2023-03-31T01:12:12;8.45;;;1.40;;
71771;SDS011;59606;52.138;5.424;2023-03-31T01:14:42;11.55;;;1.38;;
71771;SDS011;59606;52.138;5.424;2023-03-31T01:17:09;7.47;;;1.50;;
71771;SDS011;59606;52.138;5.424;2023-03-31T01:19:44;7.82;;;1.25;;
71771;SDS011;59606;52.138;5.424;2023-03-31T01:25:20;7.47;;;1.65;;
71771;SDS011;59606;52.138;5.424;2023-03-31T01:33:48;6.25;;;1.65;;
71771;SDS011;59606;52.138;5.424;2023-03-31T01:42:04;9.93;;;1.42;;
71771;SDS011;59606;52.138;5.424;2023-03-31T01:44:39;10.32;;;1.52;;
71771;SDS011;59606;52.138;5.424;2023-03-31T01:52:35;12.35;;;1.55;;
71771;SDS011;59606;52.138;5.424;2023-03-31T01:55:17;7.10;;;1.75;;
71771;SDS011;59606;52.138;5.424;2023-03-31T01:57:52;5.72;;;1.98;;
71771;SDS011;59606;52.138;5.424;2023-03-31T02:00:27;10.82;;;2.00;;
71771;SDS011;59606;52.138;5.424;2023-03-31T02:02:59;9.53;;;1.87;;
71771;SDS011;59606;52.138;5.424;2023-03-31T02:05:37;11.93;;;2.10;;
71771;SDS011;59606;52.138;5.424;2023-03-31T02:08:09;8.65;;;1.55;;
71771;SDS011;59606;52.138;5.424;2023-03-31T02:10:41;11.88;;;3.13;;
71771;SDS011;59606;52.138;5.424;2023-03-31T02:13:13;8.85;;;2.33;;
71771;SDS011;59606;52.138;5.424;2023-03-31T02:15:43;8.97;;;1.80;;
71771;SDS011;59606;52.138;5.424;2023-03-31T02:18:16;9.27;;;2.40;;
71771;SDS011;59606;52.138;5.424;2023-03-31T02:20:46;7.95;;;1.90;;
71771;SDS011;59606;52.138;5.424;2023-03-31T02:23:17;7.30;;;1.63;;
71771;SDS011;59606;52.138;5.424;2023-03-31T02:25:48;6.18;;;1.88;;
71771;SDS011;59606;52.138;5.424;2023-03-31T02:28:22;5.97;;;1.67;;
71771;SDS011;59606;52.138;5.424;2023-03-31T02:33:33;7.13;;;2.92;;
71771;SDS011;59606;52.138;5.424;2023-03-31T02:36:00;10.40;;;1.92;;
71771;SDS011;59606;52.138;5.424;2023-03-31T02:38:27;12.00;;;1.92;;
71771;SDS011;59606;52.138;5.424;2023-03-31T02:40:58;6.10;;;1.70;;
71771;SDS011;59606;52.138;5.424;2023-03-31T02:43:24;9.07;;;2.15;;
71771;SDS011;59606;52.138;5.424;2023-03-31T02:45:51;9.93;;;2.00;;
71771;SDS011;59606;52.138;5.424;2023-03-31T02:48:25;14.27;;;2.47;;
71771;SDS011;59606;52.138;5.424;2023-03-31T03:02:25;10.18;;;2.17;;
71771;SDS011;59606;52.138;5.424;2023-03-31T03:07:57;13.27;;;2.03;;
71771;SDS011;59606;52.138;5.424;2023-03-31T03:14:20;8.63;;;1.40;;
71771;SDS011;59606;52.138;5.424;2023-03-31T03:16:24;6.45;;;1.83;;
71771;SDS011;59606;52.138;5.424;2023-03-31T03:19:00;9.90;;;1.83;;
71771;SDS011;59606;52.138;5.424;2023-03-31T03:21:31;4.80;;;1.43;;
71771;SDS011;59606;52.138;5.424;2023-03-31T03:23:58;8.65;;;1.63;;
71771;SDS011;59606;52.138;5.424;2023-03-31T03:26:26;8.80;;;1.42;;
71771;SDS011;59606;52.138;5.424;2023-03-31T03:28:53;6.28;;;1.42;;
71771;SDS011;59606;52.138;5.424;2023-03-31T03:31:21;8.00;;;1.13;;
71771;SDS011;59606;52.138;5.424;2023-03-31T03:33:49;7.40;;;1.30;;
71771;SDS011;59606;52.138;5.424;2023-03-31T03:36:16;10.88;;;1.40;;
71771;SDS011;59606;52.138;5.424;2023-03-31T03:38:44;8.82;;;1.85;;
71771;SDS011;59606;52.138;5.424;2023-03-31T03:41:10;9.05;;;2.05;;
71771;SDS011;59606;52.138;5.424;2023-03-31T03:43:36;7.20;;;1.17;;
71771;SDS011;59606;52.138;5.424;2023-03-31T03:46:03;11.10;;;1.30;;
71771;SDS011;59606;52.138;5.424;2023-03-31T03:48:31;8.25;;;1.30;;
71771;SDS011;59606;52.138;5.424;2023-03-31T03:51:00;5.28;;;2.00;;
71771;SDS011;59606;52.138;5.424;2023-03-31T03:53:27;7.57;;;1.58;;
71771;SDS011;59606;52.138;5.424;2023-03-31T03:55:53;5.70;;;1.40;;
71771;SDS011;59606;52.138;5.424;2023-03-31T03:58:20;8.43;;;1.67;;
71771;SDS011;59606;52.138;5.424;2023-03-31T04:00:46;4.72;;;1.30;;
71771;SDS011;59606;52.138;5.424;2023-03-31T04:03:13;7.90;;;1.45;;
71771;SDS011;59606;52.138;5.424;2023-03-31T04:05:40;6.10;;;1.27;;
71771;SDS011;59606;52.138;5.424;2023-03-31T04:08:06;9.57;;;1.30;;
71771;SDS011;59606;52.138;5.424;2023-03-31T04:10:34;5.97;;;1.57;;
71771;SDS011;59606;52.138;5.424;2023-03-31T04:13:01;6.90;;;0.90;;
71771;SDS011;59606;52.138;5.424;2023-03-31T04:15:28;6.75;;;1.40;;
71771;SDS011;59606;52.138;5.424;2023-03-31T04:17:54;5.18;;;1.00;;
71771;SDS011;59606;52.138;5.424;2023-03-31T04:20:23;3.85;;;0.52;;
71771;SDS011;59606;52.138;5.424;2023-03-31T04:22:53;5.43;;;1.20;;
71771;SDS011;59606;52.138;5.424;2023-03-31T04:25:20;3.08;;;0.77;;
71771;SDS011;59606;52.138;5.424;2023-03-31T04:27:50;4.40;;;0.80;;
71771;SDS011;59606;52.138;5.424;2023-03-31T04:30:24;9.63;;;1.42;;
71771;SDS011;59606;52.138;5.424;2023-03-31T04:33:01;3.35;;;1.00;;
71771;SDS011;59606;52.138;5.424;2023-03-31T04:35:29;3.07;;;0.90;;
71771;SDS011;59606;52.138;5.424;2023-03-31T04:38:19;6.43;;;0.88;;
71771;SDS011;59606;52.138;5.424;2023-03-31T04:40:48;3.22;;;0.70;;
71771;SDS011;59606;52.138;5.424;2023-03-31T04:43:17;4.30;;;0.70;;
71771;SDS011;59606;52.138;5.424;2023-03-31T04:45:45;8.18;;;1.90;;
71771;SDS011;59606;52.138;5.424;2023-03-31T04:48:12;5.73;;;0.90;;
71771;SDS011;59606;52.138;5.424;2023-03-31T04:50:38;7.28;;;1.60;;
71771;SDS011;59606;52.138;5.424;2023-03-31T04:53:05;5.75;;;1.50;;
71771;SDS011;59606;52.138;5.424;2023-03-31T04:55:32;5.97;;;1.30;;
71771;SDS011;59606;52.138;5.424;2023-03-31T04:57:59;9.30;;;1.60;;
71771;SDS011;59606;52.138;5.424;2023-03-31T05:00:25;7.47;;;2.10;;
71771;SDS011;59606;52.138;5.424;2023-03-31T05:02:54;7.10;;;1.35;;
71771;SDS011;59606;52.138;5.424;2023-03-31T05:05:21;9.10;;;1.88;;
71771;SDS011;59606;52.138;5.424;2023-03-31T05:07:47;7.50;;;1.80;;
71771;SDS011;59606;52.138;5.424;2023-03-31T05:10:14;4.72;;;1.73;;
71771;SDS011;59606;52.138;5.424;2023-03-31T05:12:41;7.13;;;1.80;;
71771;SDS011;59606;52.138;5.424;2023-03-31T05:15:07;9.50;;;1.90;;
71771;SDS011;59606;52.138;5.424;2023-03-31T05:17:34;6.38;;;1.67;;
71771;SDS011;59606;52.138;5.424;2023-03-31T05:20:01;8.05;;;1.98;;
71771;SDS011;59606;52.138;5.424;2023-03-31T05:22:33;9.20;;;2.03;;
71771;SDS011;59606;52.138;5.424;2023-03-31T05:25:01;9.47;;;1.60;;
71771;SDS011;59606;52.138;5.424;2023-03-31T05:27:28;5.80;;;1.65;;
71771;SDS011;59606;52.138;5.424;2023-03-31T05:29:55;10.98;;;1.90;;
71771;SDS011;59606;52.138;5.424;2023-03-31T05:32:21;5.85;;;2.15;;
71771;SDS011;59606;52.138;5.424;2023-03-31T05:34:48;4.53;;;1.50;;
71771;SDS011;59606;52.138;5.424;2023-03-31T05:37:19;5.90;;;1.50;;
71771;SDS011;59606;52.138;5.424;2023-03-31T05:39:45;6.57;;;1.95;;
71771;SDS011;59606;52.138;5.424;2023-03-31T05:42:12;8.13;;;1.50;;
71771;SDS011;59606;52.138;5.424;2023-03-31T05:44:38;5.65;;;1.30;;
71771;SDS011;59606;52.138;5.424;2023-03-31T05:47:05;5.10;;;1.45;;
71771;SDS011;59606;52.138;5.424;2023-03-31T05:49:31;5.77;;;1.10;;
71771;SDS011;59606;52.138;5.424;2023-03-31T05:51:58;7.78;;;1.52;;
71771;SDS011;59606;52.138;5.424;2023-03-31T05:54:25;3.67;;;1.50;;
71771;SDS011;59606;52.138;5.424;2023-03-31T05:56:52;9.55;;;1.27;;
71771;SDS011;59606;52.138;5.424;2023-03-31T05:59:19;5.47;;;1.23;;
71771;SDS011;59606;52.138;5.424;2023-03-31T06:01:48;7.40;;;1.60;;
71771;SDS011;59606;52.138;5.424;2023-03-31T06:04:15;7.65;;;1.40;;
71771;SDS011;59606;52.138;5.424;2023-03-31T06:06:41;6.68;;;1.00;;
71771;SDS011;59606;52.138;5.424;2023-03-31T06:09:09;5.47;;;1.23;;
71771;SDS011;59606;52.138;5.424;2023-03-31T06:11:37;6.32;;;1.15;;
71771;SDS011;59606;52.138;5.424;2023-03-31T06:14:04;5.17;;;1.40;;
71771;SDS011;59606;52.138;5.424;2023-03-31T06:16:31;4.18;;;0.98;;
71771;SDS011;59606;52.138;5.424;2023-03-31T06:18:58;6.28;;;1.48;;
71771;SDS011;59606;52.138;5.424;2023-03-31T06:21:25;7.80;;;1.35;;
71771;SDS011;59606;52.138;5.424;2023-03-31T06:23:51;6.45;;;1.25;;
71771;SDS011;59606;52.138;5.424;2023-03-31T06:26:21;8.13;;;1.17;;
71771;SDS011;59606;52.138;5.424;2023-03-31T06:28:48;7.40;;;0.82;;
71771;SDS011;59606;52.138;5.424;2023-03-31T06:31:16;4.53;;;1.27;;
71771;SDS011;59606;52.138;5.424;2023-03-31T06:33:44;6.80;;;1.60;;
71771;SDS011;59606;52.138;5.424;2023-03-31T06:36:11;6.43;;;1.27;;
71771;SDS011;59606;52.138;5.424;2023-03-31T06:38:40;5.93;;;0.90;;
71771;SDS011;59606;52.138;5.424;2023-03-31T06:41:08;6.18;;;0.90;;
71771;SDS011;59606;52.138;5.424;2023-03-31T06:43:37;7.10;;;0.90;;
71771;SDS011;59606;52.138;5.424;2023-03-31T06:46:04;5.72;;;1.02;;
71771;SDS011;59606;52.138;5.424;2023-03-31T06:48:31;4.25;;;0.73;;
71771;SDS011;59606;52.138;5.424;2023-03-31T06:50:59;6.97;;;1.20;;
71771;SDS011;59606;52.138;5.424;2023-03-31T06:53:27;6.03;;;0.95;;
71771;SDS011;59606;52.138;5.424;2023-03-31T06:55:54;4.30;;;0.82;;
71771;SDS011;59606;52.138;5.424;2023-03-31T06:58:21;3.30;;;0.80;;
71771;SDS011;59606;52.138;5.424;2023-03-31T07:00:47;3.88;;;0.70;;
71771;SDS011;59606;52.138;5.424;2023-03-31T07:03:15;4.07;;;0.83;;
71771;SDS011;59606;52.138;5.424;2023-03-31T07:05:48;3.75;;;0.63;;
71771;SDS011;59606;52.138;5.424;2023-03-31T07:08:16;4.13;;;0.60;;
71771;SDS011;59606;52.138;5.424;2023-03-31T07:10:43;2.47;;;0.45;;
71771;SDS011;59606;52.138;5.424;2023-03-31T07:13:13;2.00;;;0.60;;
71771;SDS011;59606;52.138;5.424;2023-03-31T07:15:41;5.50;;;1.53;;
71771;SDS011;59606;52.138;5.424;2023-03-31T07:18:08;2.53;;;0.50;;
71771;SDS011;59606;52.138;5.424;2023-03-31T07:20:34;3.38;;;0.63;;
71771;SDS011;59606;52.138;5.424;2023-03-31T07:23:02;2.33;;;0.43;;
71771;SDS011;59606;52.138;5.424;2023-03-31T07:25:30;4.55;;;0.55;;
71771;SDS011;59606;52.138;5.424;2023-03-31T07:27:57;6.93;;;0.73;;
71771;SDS011;59606;52.138;5.424;2023-03-31T07:30:23;10.10;;;0.68;;
71771;SDS011;59606;52.138;5.424;2023-03-31T07:32:50;2.20;;;0.47;;
71771;SDS011;59606;52.138;5.424;2023-03-31T07:35:18;4.53;;;0.60;;
71771;SDS011;59606;52.138;5.424;2023-03-31T07:37:46;5.50;;;0.82;;
71771;SDS011;59606;52.138;5.424;2023-03-31T07:40:15;3.83;;;0.67;;
71771;SDS011;59606;52.138;5.424;2023-03-31T07:42:49;3.13;;;0.70;;
71771;SDS011;59606;52.138;5.424;2023-03-31T07:45:22;4.63;;;0.47;;
71771;SDS011;59606;52.138;5.424;2023-03-31T07:47:50;4.20;;;0.50;;
71771;SDS011;59606;52.138;5.424;2023-03-31T07:50:17;4.43;;;1.20;;
71771;SDS011;59606;52.138;5.424;2023-03-31T07:52:44;5.77;;;0.70;;
71771;SDS011;59606;52.138;5.424;2023-03-31T07:55:12;2.90;;;0.60;;
71771;SDS011;59606;52.138;5.424;2023-03-31T07:57:39;1.45;;;0.43;;
71771;SDS011;59606;52.138;5.424;2023-03-31T08:00:07;5.15;;;0.77;;
71771;SDS011;59606;52.138;5.424;2023-03-31T08:02:38;3.95;;;0.85;;
71771;SDS011;59606;52.138;5.424;2023-03-31T08:05:08;2.17;;;0.60;;
71771;SDS011;59606;52.138;5.424;2023-03-31T08:07:37;2.20;;;0.50;;
71771;SDS011;59606;52.138;5.424;2023-03-31T08:10:08;2.72;;;0.90;;
71771;SDS011;59606;52.138;5.424;2023-03-31T08:12:36;4.88;;;0.50;;
71771;SDS011;59606;52.138;5.424;2023-03-31T08:15:03;3.88;;;0.70;;
71771;SDS011;59606;52.138;5.424;2023-03-31T08:17:30;4.20;;;0.70;;
71771;SDS011;59606;52.138;5.424;2023-03-31T08:19:56;3.95;;;0.90;;
71771;SDS011;59606;52.138;5.424;2023-03-31T08:22:29;4.25;;;0.90;;
71771;SDS011;59606;52.138;5.424;2023-03-31T08:24:55;2.67;;;0.80;;
71771;SDS011;59606;52.138;5.424;2023-03-31T08:27:22;3.75;;;1.05;;
71771;SDS011;59606;52.138;5.424;2023-03-31T08:29:48;4.67;;;0.70;;
71771;SDS011;59606;52.138;5.424;2023-03-31T08:32:15;3.53;;;0.85;;
71771;SDS011;59606;52.138;5.424;2023-03-31T08:34:41;5.85;;;0.85;;
71771;SDS011;59606;52.138;5.424;2023-03-31T08:37:08;2.88;;;1.10;;
71771;SDS011;59606;52.138;5.424;2023-03-31T08:39:35;2.72;;;0.75;;
71771;SDS011;59606;52.138;5.424;2023-03-31T08:47:44;4.32;;;0.93;;
71771;SDS011;59606;52.138;5.424;2023-03-31T08:50:13;3.05;;;1.35;;
71771;SDS011;59606;52.138;5.424;2023-03-31T08:52:45;4.60;;;1.20;;
71771;SDS011;59606;52.138;5.424;2023-03-31T08:55:17;5.77;;;1.10;;
71771;SDS011;59606;52.138;5.424;2023-03-31T09:00:45;6.82;;;1.27;;
71771;SDS011;59606;52.138;5.424;2023-03-31T09:03:25;6.38;;;1.27;;
71771;SDS011;59606;52.138;5.424;2023-03-31T09:06:15;12.52;;;2.10;;
71771;SDS011;59606;52.138;5.424;2023-03-31T09:08:47;10.20;;;2.07;;
71771;SDS011;59606;52.138;5.424;2023-03-31T09:11:35;10.48;;;1.80;;
71771;SDS011;59606;52.138;5.424;2023-03-31T09:14:06;10.38;;;2.30;;
71771;SDS011;59606;52.138;5.424;2023-03-31T09:16:51;6.32;;;1.77;;
71771;SDS011;59606;52.138;5.424;2023-03-31T09:22:05;12.33;;;2.33;;
71771;SDS011;59606;52.138;5.424;2023-03-31T09:24:49;10.80;;;2.22;;
71771;SDS011;59606;52.138;5.424;2023-03-31T09:27:17;11.23;;;2.70;;
71771;SDS011;59606;52.138;5.424;2023-03-31T09:32:19;12.13;;;2.00;;
71771;SDS011;59606;52.138;5.424;2023-03-31T09:34:58;14.60;;;2.57;;
71771;SDS011;59606;52.138;5.424;2023-03-31T09:37:41;12.40;;;1.88;;
71771;SDS011;59606;52.138;5.424;2023-03-31T09:40:12;10.70;;;1.80;;
71771;SDS011;59606;52.138;5.424;2023-03-31T09:45:47;11.10;;;1.80;;
71771;SDS011;59606;52.138;5.424;2023-03-31T09:48:34;10.80;;;1.70;;
71771;SDS011;59606;52.138;5.424;2023-03-31T09:51:05;10.98;;;1.98;;
71771;SDS011;59606;52.138;5.424;2023-03-31T09:53:42;10.38;;;1.90;;
71771;SDS011;59606;52.138;5.424;2023-03-31T09:56:20;17.13;;;6.65;;
71771;SDS011;59606;52.138;5.424;2023-03-31T09:59:01;100.88;;;39.45;;
71771;SDS011;59606;52.138;5.424;2023-03-31T10:01:28;47.90;;;34.33;;
71771;SDS011;59606;52.138;5.424;2023-03-31T10:03:55;25.45;;;12.38;;
71771;SDS011;59606;52.138;5.424;2023-03-31T10:06:23;17.83;;;6.68;;
71771;SDS011;59606;52.138;5.424;2023-03-31T10:09:01;24.25;;;12.32;;
71771;SDS011;59606;52.138;5.424;2023-03-31T10:11:30;24.75;;;12.18;;
71771;SDS011;59606;52.138;5.424;2023-03-31T10:16:40;18.17;;;8.02;;
71771;SDS011;59606;52.138;5.424;2023-03-31T10:19:12;20.25;;;14.43;;
71771;SDS011;59606;52.138;5.424;2023-03-31T10:21:47;18.02;;;8.70;;
71771;SDS011;59606;52.138;5.424;2023-03-31T10:24:20;14.18;;;5.50;;
71771;SDS011;59606;52.138;5.424;2023-03-31T10:26:48;9.97;;;2.03;;
71771;SDS011;59606;52.138;5.424;2023-03-31T10:29:19;7.68;;;1.60;;
71771;SDS011;59606;52.138;5.424;2023-03-31T10:31:51;9.85;;;1.73;;
71771;SDS011;59606;52.138;5.424;2023-03-31T10:34:18;13.10;;;2.47;;
71771;SDS011;59606;52.138;5.424;2023-03-31T10:36:45;12.50;;;3.45;;
71771;SDS011;59606;52.138;5.424;2023-03-31T10:39:14;12.33;;;2.10;;
71771;SDS011;59606;52.138;5.424;2023-03-31T10:41:42;13.90;;;2.42;;
71771;SDS011;59606;52.138;5.424;2023-03-31T10:44:29;14.40;;;2.35;;
71771;SDS011;59606;52.138;5.424;2023-03-31T10:47:02;11.70;;;2.30;;
71771;SDS011;59606;52.138;5.424;2023-03-31T10:49:35;9.57;;;1.70;;
71771;SDS011;59606;52.138;5.424;2023-03-31T10:52:10;9.10;;;1.70;;
71771;SDS011;59606;52.138;5.424;2023-03-31T10:54:52;10.38;;;1.98;;
71771;SDS011;59606;52.138;5.424;2023-03-31T10:57:29;14.98;;;3.13;;
71771;SDS011;59606;52.138;5.424;2023-03-31T11:00:26;11.65;;;2.58;;
71771;SDS011;59606;52.138;5.424;2023-03-31T11:11:42;9.93;;;3.00;;
71771;SDS011;59606;52.138;5.424;2023-03-31T11:20:12;12.93;;;1.70;;
71771;SDS011;59606;52.138;5.424;2023-03-31T11:25:49;6.55;;;1.92;;
71771;SDS011;59606;52.138;5.424;2023-03-31T11:28:24;13.90;;;4.32;;
71771;SDS011;59606;52.138;5.424;2023-03-31T11:37:41;9.57;;;1.80;;
71771;SDS011;59606;52.138;5.424;2023-03-31T11:43:04;9.25;;;1.38;;
71771;SDS011;59606;52.138;5.424;2023-03-31T11:45:40;8.73;;;1.35;;
71771;SDS011;59606;52.138;5.424;2023-03-31T11:48:21;7.33;;;1.33;;
71771;SDS011;59606;52.138;5.424;2023-03-31T11:50:56;10.35;;;2.35;;
71771;SDS011;59606;52.138;5.424;2023-03-31T11:53:29;9.48;;;1.58;;
71771;SDS011;59606;52.138;5.424;2023-03-31T11:56:01;9.45;;;1.48;;
71771;SDS011;59606;52.138;5.424;2023-03-31T11:58:35;11.48;;;1.35;;
71771;SDS011;59606;52.138;5.424;2023-03-31T12:06:12;8.15;;;1.75;;
71771;SDS011;59606;52.138;5.424;2023-03-31T12:11:38;9.88;;;1.10;;
71771;SDS011;59606;52.138;5.424;2023-03-31T12:14:16;6.13;;;1.20;;
71771;SDS011;59606;52.138;5.424;2023-03-31T12:16:53;7.53;;;1.70;;
71771;SDS011;59606;52.138;5.424;2023-03-31T12:19:35;10.02;;;1.17;;
71771;SDS011;59606;52.138;5.424;2023-03-31T12:22:26;11.18;;;1.35;;
71771;SDS011;59606;52.138;5.424;2023-03-31T12:24:57;11.07;;;1.45;;
71771;SDS011;59606;52.138;5.424;2023-03-31T12:27:32;6.23;;;1.33;;
71771;SDS011;59606;52.138;5.424;2023-03-31T12:30:05;11.40;;;1.02;;
71771;SDS011;59606;52.138;5.424;2023-03-31T12:32:50;10.07;;;1.20;;
71771;SDS011;59606;52.138;5.424;2023-03-31T12:35:28;9.27;;;1.73;;
71771;SDS011;59606;52.138;5.424;2023-03-31T12:38:14;9.98;;;1.73;;
71771;SDS011;59606;52.138;5.424;2023-03-31T12:57:20;9.77;;;1.95;;
71771;SDS011;59606;52.138;5.424;2023-03-31T13:02:38;8.85;;;2.03;;
71771;SDS011;59606;52.138;5.424;2023-03-31T13:08:07;7.40;;;1.83;;
71771;SDS011;59606;52.138;5.424;2023-03-31T13:13:23;11.98;;;1.70;;
71771;SDS011;59606;52.138;5.424;2023-03-31T13:15:54;11.27;;;1.80;;
71771;SDS011;59606;52.138;5.424;2023-03-31T13:18:22;11.27;;;1.77;;
71771;SDS011;59606;52.138;5.424;2023-03-31T13:20:59;8.43;;;1.40;;
71771;SDS011;59606;52.138;5.424;2023-03-31T13:23:29;9.98;;;1.60;;
71771;SDS011;59606;52.138;5.424;2023-03-31T13:26:00;7.65;;;1.55;;
71771;SDS011;59606;52.138;5.424;2023-03-31T13:28:31;10.48;;;2.72;;
71771;SDS011;59606;52.138;5.424;2023-03-31T13:33:30;9.77;;;2.00;;
71771;SDS011;59606;52.138;5.424;2023-03-31T13:42:12;14.10;;;2.15;;
71771;SDS011;59606;52.138;5.424;2023-03-31T13:50:20;19.77;;;8.10;;
71771;SDS011;59606;52.138;5.424;2023-03-31T13:53:04;12.52;;;3.60;;
71771;SDS011;59606;52.138;5.424;2023-03-31T13:55:47;9.93;;;1.88;;
71771;SDS011;59606;52.138;5.424;2023-03-31T14:03:51;12.73;;;3.15;;
71771;SDS011;59606;52.138;5.424;2023-03-31T14:06:43;35.60;;;13.90;;
71771;SDS011;59606;52.138;5.424;2023-03-31T14:09:19;13.95;;;4.45;;
71771;SDS011;59606;52.138;5.424;2023-03-31T14:11:47;13.57;;;5.63;;
71771;SDS011;59606;52.138;5.424;2023-03-31T14:14:15;14.20;;;4.97;;
71771;SDS011;59606;52.138;5.424;2023-03-31T14:16:52;31.88;;;12.07;;
71771;SDS011;59606;52.138;5.424;2023-03-31T14:22:07;16.23;;;6.00;;
71771;SDS011;59606;52.138;5.424;2023-03-31T14:25:01;7.80;;;2.08;;
71771;SDS011;59606;52.138;5.424;2023-03-31T14:32:57;5.68;;;1.45;;
71771;SDS011;59606;52.138;5.424;2023-03-31T14:35:34;7.65;;;1.60;;
71771;SDS011;59606;52.138;5.424;2023-03-31T14:38:04;6.78;;;2.00;;
71771;SDS011;59606;52.138;5.424;2023-03-31T14:40:42;10.90;;;6.17;;
71771;SDS011;59606;52.138;5.424;2023-03-31T14:43:20;14.32;;;5.63;;
71771;SDS011;59606;52.138;5.424;2023-03-31T14:45:59;11.07;;;3.75;;
71771;SDS011;59606;52.138;5.424;2023-03-31T14:48:27;6.65;;;1.60;;
71771;SDS011;59606;52.138;5.424;2023-03-31T14:50:56;10.80;;;3.50;;
71771;SDS011;59606;52.138;5.424;2023-03-31T14:53:25;5.27;;;1.70;;
71771;SDS011;59606;52.138;5.424;2023-03-31T14:56:01;6.95;;;1.80;;
71771;SDS011;59606;52.138;5.424;2023-03-31T14:58:33;9.90;;;2.33;;
71771;SDS011;59606;52.138;5.424;2023-03-31T15:01:02;9.05;;;3.67;;
71771;SDS011;59606;52.138;5.424;2023-03-31T15:03:33;4.35;;;1.85;;
71771;SDS011;59606;52.138;5.424;2023-03-31T15:06:02;12.63;;;3.97;;
71771;SDS011;59606;52.138;5.424;2023-03-31T15:08:30;10.43;;;4.78;;
71771;SDS011;59606;52.138;5.424;2023-03-31T15:10:58;11.07;;;3.75;;
71771;SDS011;59606;52.138;5.424;2023-03-31T15:13:49;24.45;;;10.52;;
71771;SDS011;59606;52.138;5.424;2023-03-31T15:19:21;49.60;;;19.00;;
71771;SDS011;59606;52.138;5.424;2023-03-31T15:21:57;17.83;;;9.38;;
71771;SDS011;59606;52.138;5.424;2023-03-31T15:24:27;8.50;;;5.63;;
71771;SDS011;59606;52.138;5.424;2023-03-31T15:27:02;6.40;;;2.30;;
71771;SDS011;59606;52.138;5.424;2023-03-31T15:29:46;8.10;;;4.05;;
71771;SDS011;59606;52.138;5.424;2023-03-31T15:32:17;5.47;;;2.57;;
71771;SDS011;59606;52.138;5.424;2023-03-31T15:34:46;8.60;;;4.93;;
71771;SDS011;59606;52.138;5.424;2023-03-31T15:37:19;6.05;;;2.78;;
71771;SDS011;59606;52.138;5.424;2023-03-31T15:39:49;3.60;;;1.83;;
71771;SDS011;59606;52.138;5.424;2023-03-31T15:42:16;4.38;;;2.20;;
71771;SDS011;59606;52.138;5.424;2023-03-31T15:44:44;3.83;;;2.33;;
71771;SDS011;59606;52.138;5.424;2023-03-31T15:47:12;4.28;;;1.77;;
71771;SDS011;59606;52.138;5.424;2023-03-31T15:49:47;4.18;;;2.08;;
71771;SDS011;59606;52.138;5.424;2023-03-31T15:52:26;6.55;;;2.72;;
71771;SDS011;59606;52.138;5.424;2023-03-31T15:54:59;10.13;;;4.95;;
71771;SDS011;59606;52.138;5.424;2023-03-31T15:57:31;8.77;;;3.47;;
71771;SDS011;59606;52.138;5.424;2023-03-31T16:00:00;6.95;;;3.60;;
71771;SDS011;59606;52.138;5.424;2023-03-31T16:02:41;5.78;;;2.40;;
71771;SDS011;59606;52.138;5.424;2023-03-31T16:05:20;7.07;;;1.50;;
71771;SDS011;59606;52.138;5.424;2023-03-31T16:07:55;4.95;;;2.33;;
71771;SDS011;59606;52.138;5.424;2023-03-31T16:10:23;5.40;;;2.00;;
71771;SDS011;59606;52.138;5.424;2023-03-31T16:12:52;2.95;;;1.10;;
71771;SDS011;59606;52.138;5.424;2023-03-31T16:15:29;7.07;;;1.92;;
71771;SDS011;59606;52.138;5.424;2023-03-31T16:18:09;4.32;;;1.73;;
71771;SDS011;59606;52.138;5.424;2023-03-31T16:20:44;5.10;;;1.40;;
71771;SDS011;59606;52.138;5.424;2023-03-31T16:23:27;3.87;;;1.70;;
71771;SDS011;59606;52.138;5.424;2023-03-31T16:25:55;5.22;;;1.83;;
71771;SDS011;59606;52.138;5.424;2023-03-31T16:28:23;3.88;;;1.33;;
71771;SDS011;59606;52.138;5.424;2023-03-31T16:30:52;3.30;;;1.08;;
71771;SDS011;59606;52.138;5.424;2023-03-31T16:33:20;4.18;;;1.60;;
71771;SDS011;59606;52.138;5.424;2023-03-31T16:35:50;4.00;;;1.10;;
71771;SDS011;59606;52.138;5.424;2023-03-31T16:38:19;3.05;;;1.10;;
71771;SDS011;59606;52.138;5.424;2023-03-31T16:40:54;6.45;;;1.67;;
71771;SDS011;59606;52.138;5.424;2023-03-31T16:43:23;2.47;;;0.98;;
71771;SDS011;59606;52.138;5.424;2023-03-31T16:45:52;5.35;;;1.30;;
71771;SDS011;59606;52.138;5.424;2023-03-31T16:48:28;3.60;;;1.30;;
71771;SDS011;59606;52.138;5.424;2023-03-31T16:50:58;5.05;;;1.67;;
71771;SDS011;59606;52.138;5.424;2023-03-31T16:53:26;14.77;;;4.82;;
71771;SDS011;59606;52.138;5.424;2023-03-31T16:55:54;13.70;;;5.63;;
71771;SDS011;59606;52.138;5.424;2023-03-31T16:58:21;15.05;;;5.80;;
71771;SDS011;59606;52.138;5.424;2023-03-31T17:00:49;30.80;;;12.80;;
71771;SDS011;59606;52.138;5.424;2023-03-31T17:03:16;20.63;;;7.97;;
71771;SDS011;59606;52.138;5.424;2023-03-31T17:05:44;14.07;;;5.40;;
71771;SDS011;59606;52.138;5.424;2023-03-31T17:08:13;14.35;;;6.75;;
71771;SDS011;59606;52.138;5.424;2023-03-31T17:10:41;11.98;;;5.43;;
71771;SDS011;59606;52.138;5.424;2023-03-31T17:13:15;11.17;;;4.70;;
71771;SDS011;59606;52.138;5.424;2023-03-31T17:15:41;7.70;;;4.20;;
71771;SDS011;59606;52.138;5.424;2023-03-31T17:18:08;8.63;;;4.97;;
71771;SDS011;59606;52.138;5.424;2023-03-31T17:20:35;6.07;;;4.10;;
71771;SDS011;59606;52.138;5.424;2023-03-31T17:23:02;5.28;;;3.20;;
71771;SDS011;59606;52.138;5.424;2023-03-31T17:25:29;5.37;;;3.37;;
71771;SDS011;59606;52.138;5.424;2023-03-31T17:27:56;4.10;;;2.53;;
71771;SDS011;59606;52.138;5.424;2023-03-31T17:30:25;4.82;;;2.70;;
71771;SDS011;59606;52.138;5.424;2023-03-31T17:32:52;5.50;;;2.75;;
71771;SDS011;59606;52.138;5.424;2023-03-31T17:35:19;4.10;;;2.15;;
71771;SDS011;59606;52.138;5.424;2023-03-31T17:37:47;4.17;;;2.10;;
71771;SDS011;59606;52.138;5.424;2023-03-31T17:40:15;7.50;;;3.08;;